RYR51SF EBCI-LPPR
Flight info
| Callsign | RYR51SF |
|---|---|
| Flight time | N/A |
| Altitude | 31000 |
| Route | CIV N872 LESDO DCT KOVIN/N0435F350 DCT NIDUV DCT KIHVI UN872 ERIGA DCT FUJTI DCT ATLEN DCT INSID T326 ASPOR |
| Aircraft | B738/M-SDE2E3FGHIRWXY/LB1 |
Departure
| Time | 2026-05-05 18:22 |
|---|---|
| Airport | Brussels South Charleroi Airport (EBCI) |
Arrival
| Time | N/A |
|---|---|
| Airport | Francisco de Sá Carneiro Airport (LPPR) |
| Time | Latitude | Longitude | Altitude | Speed | Heading |
|---|---|---|---|---|---|
| 2026-05-05 17:47 | 50.46871 | 4.47098 | 584 ft | 0 kts | 335° |
| 2026-05-05 18:09 | 50.46860 | 4.47106 | 584 ft | 4 kts | 335° |
| 2026-05-05 18:10 | 50.46839 | 4.47121 | 584 ft | 4 kts | 328° |
| 2026-05-05 18:10 | 50.46825 | 4.47146 | 584 ft | 5 kts | 264° |
| 2026-05-05 18:10 | 50.46834 | 4.47183 | 585 ft | 4 kts | 244° |
| 2026-05-05 18:10 | 50.46836 | 4.47189 | 585 ft | 3 kts | 245° |
| 2026-05-05 18:13 | 50.46835 | 4.47188 | 585 ft | 0 kts | 245° |
| 2026-05-05 18:13 | 50.46824 | 4.47148 | 585 ft | 8 kts | 246° |
| 2026-05-05 18:13 | 50.46800 | 4.47065 | 584 ft | 9 kts | 246° |
| 2026-05-05 18:14 | 50.46775 | 4.46979 | 584 ft | 9 kts | 245° |
| 2026-05-05 18:14 | 50.46750 | 4.46894 | 585 ft | 8 kts | 244° |
| 2026-05-05 18:14 | 50.46725 | 4.46812 | 586 ft | 8 kts | 240° |
| 2026-05-05 18:14 | 50.46699 | 4.46765 | 588 ft | 3 kts | 196° |
| 2026-05-05 18:15 | 50.46678 | 4.46775 | 589 ft | 3 kts | 156° |
| 2026-05-05 18:15 | 50.46654 | 4.46792 | 590 ft | 6 kts | 155° |
| 2026-05-05 18:15 | 50.46610 | 4.46779 | 590 ft | 10 kts | 246° |
| 2026-05-05 18:15 | 50.46565 | 4.46659 | 590 ft | 16 kts | 244° |
| 2026-05-05 18:16 | 50.46509 | 4.46464 | 588 ft | 24 kts | 247° |
| 2026-05-05 18:16 | 50.46433 | 4.46205 | 590 ft | 27 kts | 245° |
| 2026-05-05 18:16 | 50.46357 | 4.45945 | 596 ft | 25 kts | 245° |
| 2026-05-05 18:16 | 50.46287 | 4.45701 | 596 ft | 24 kts | 245° |
| 2026-05-05 18:17 | 50.46221 | 4.45474 | 598 ft | 23 kts | 245° |
| 2026-05-05 18:17 | 50.46155 | 4.45252 | 598 ft | 22 kts | 245° |
| 2026-05-05 18:17 | 50.46094 | 4.45040 | 595 ft | 21 kts | 245° |
| 2026-05-05 18:17 | 50.46033 | 4.44831 | 596 ft | 21 kts | 245° |
| 2026-05-05 18:18 | 50.45975 | 4.44629 | 597 ft | 20 kts | 245° |
| 2026-05-05 18:18 | 50.45911 | 4.44437 | 598 ft | 19 kts | 234° |
| 2026-05-05 18:18 | 50.45830 | 4.44271 | 598 ft | 19 kts | 232° |
| 2026-05-05 18:18 | 50.45751 | 4.44112 | 594 ft | 18 kts | 232° |
| 2026-05-05 18:19 | 50.45671 | 4.43962 | 593 ft | 18 kts | 224° |
| 2026-05-05 18:19 | 50.45579 | 4.43853 | 591 ft | 12 kts | 217° |
| 2026-05-05 18:19 | 50.45558 | 4.43765 | 593 ft | 8 kts | 293° |
| 2026-05-05 18:19 | 50.45559 | 4.43686 | 593 ft | 8 kts | 229° |
| 2026-05-05 18:20 | 50.45529 | 4.43705 | 594 ft | 5 kts | 96° |
| 2026-05-05 18:20 | 50.45535 | 4.43740 | 594 ft | 0 kts | 66° |
| 2026-05-05 18:20 | 50.45535 | 4.43742 | 594 ft | 0 kts | 66° |
| 2026-05-05 18:20 | 50.45537 | 4.43748 | 594 ft | 1 kts | 66° |
| 2026-05-05 18:21 | 50.45539 | 4.43756 | 594 ft | 0 kts | 66° |
| 2026-05-05 18:21 | 50.45593 | 4.43942 | 591 ft | 51 kts | 65° |
| 2026-05-05 18:21 | 50.45833 | 4.44767 | 598 ft | 113 kts | 65° |
| 2026-05-05 18:22 | 50.46237 | 4.46141 | 683 ft | 155 kts | 62° |
| 2026-05-05 18:22 | 50.46695 | 4.47690 | 1382 ft | 158 kts | 63° |
| 2026-05-05 18:22 | 50.47213 | 4.49114 | 2217 ft | 151 kts | 39° |
| 2026-05-05 18:22 | 50.48202 | 4.49611 | 2956 ft | 156 kts | 5° |
| 2026-05-05 18:23 | 50.49251 | 4.50054 | 3627 ft | 162 kts | 42° |
| 2026-05-05 18:23 | 50.49854 | 4.51590 | 4249 ft | 180 kts | 63° |
| 2026-05-05 18:23 | 50.50473 | 4.53474 | 4508 ft | 208 kts | 58° |
| 2026-05-05 18:23 | 50.51295 | 4.55510 | 4718 ft | 234 kts | 55° |
| 2026-05-05 18:24 | 50.52273 | 4.57716 | 5127 ft | 254 kts | 54° |
| 2026-05-05 18:24 | 50.53424 | 4.59856 | 5963 ft | 260 kts | 37° |
| 2026-05-05 18:24 | 50.55102 | 4.60947 | 6793 ft | 265 kts | 8° |
| 2026-05-05 18:24 | 50.56943 | 4.60675 | 7642 ft | 272 kts | 342° |
| 2026-05-05 18:25 | 50.58577 | 4.59125 | 8481 ft | 281 kts | 316° |
| 2026-05-05 18:25 | 50.59367 | 4.57484 | 9015 ft | 288 kts | 298° |
| 2026-05-05 18:25 | 50.59992 | 4.53373 | 10130 ft | 295 kts | 273° |
| 2026-05-05 18:25 | 50.59960 | 4.50029 | 10443 ft | 319 kts | 268° |
| 2026-05-05 18:26 | 50.59804 | 4.46431 | 10790 ft | 338 kts | 266° |
| 2026-05-05 18:26 | 50.59619 | 4.42675 | 11412 ft | 348 kts | 266° |
| 2026-05-05 18:26 | 50.59443 | 4.38872 | 12265 ft | 350 kts | 266° |
| 2026-05-05 18:26 | 50.59281 | 4.35012 | 12969 ft | 357 kts | 267° |
| 2026-05-05 18:27 | 50.59129 | 4.31096 | 13762 ft | 361 kts | 267° |
| 2026-05-05 18:27 | 50.58985 | 4.27135 | 14478 ft | 364 kts | 267° |
| 2026-05-05 18:27 | 50.58844 | 4.23151 | 15254 ft | 366 kts | 266° |
| 2026-05-05 18:27 | 50.58704 | 4.19154 | 16074 ft | 366 kts | 266° |
| 2026-05-05 18:28 | 50.58422 | 4.11150 | 17657 ft | 369 kts | 265° |
| 2026-05-05 18:28 | 50.58278 | 4.07108 | 18355 ft | 372 kts | 265° |
| 2026-05-05 18:28 | 50.58131 | 4.03027 | 18941 ft | 376 kts | 265° |
| 2026-05-05 18:29 | 50.57981 | 3.98894 | 19507 ft | 380 kts | 265° |
| 2026-05-05 18:29 | 50.57827 | 3.94714 | 20050 ft | 385 kts | 265° |
| 2026-05-05 18:29 | 50.57665 | 3.90483 | 20610 ft | 389 kts | 263° |
| 2026-05-05 18:29 | 50.57016 | 3.86371 | 21124 ft | 390 kts | 242° |
| 2026-05-05 18:30 | 50.55485 | 3.82952 | 21682 ft | 389 kts | 224° |
| 2026-05-05 18:30 | 50.53332 | 3.80399 | 22211 ft | 390 kts | 205° |
| 2026-05-05 18:30 | 50.50859 | 3.78639 | 22769 ft | 392 kts | 201° |
| 2026-05-05 18:30 | 50.48325 | 3.76973 | 23278 ft | 397 kts | 201° |
| 2026-05-05 18:31 | 50.45762 | 3.75299 | 23728 ft | 401 kts | 201° |
| 2026-05-05 18:31 | 50.43188 | 3.73593 | 24204 ft | 403 kts | 201° |
| 2026-05-05 18:31 | 50.40604 | 3.71854 | 24699 ft | 405 kts | 201° |
| 2026-05-05 18:31 | 50.38015 | 3.70096 | 25161 ft | 407 kts | 201° |
| 2026-05-05 18:32 | 50.35406 | 3.68324 | 25595 ft | 410 kts | 202° |
| 2026-05-05 18:32 | 50.32776 | 3.66539 | 25980 ft | 414 kts | 201° |
| 2026-05-05 18:32 | 50.30125 | 3.64745 | 26438 ft | 416 kts | 201° |
| 2026-05-05 18:32 | 50.27467 | 3.62948 | 26903 ft | 417 kts | 201° |
| 2026-05-05 18:33 | 50.24796 | 3.61143 | 27339 ft | 419 kts | 201° |
| 2026-05-05 18:33 | 50.22112 | 3.59332 | 27761 ft | 421 kts | 201° |
| 2026-05-05 18:33 | 50.19410 | 3.57512 | 28165 ft | 424 kts | 201° |
| 2026-05-05 18:33 | 50.16700 | 3.55691 | 28568 ft | 426 kts | 200° |
| 2026-05-05 18:34 | 50.13972 | 3.53864 | 28963 ft | 428 kts | 200° |
| 2026-05-05 18:34 | 50.11226 | 3.52028 | 29269 ft | 432 kts | 200° |
| 2026-05-05 18:34 | 50.08455 | 3.50177 | 29617 ft | 434 kts | 200° |
| 2026-05-05 18:34 | 50.05675 | 3.48320 | 29986 ft | 436 kts | 200° |
| 2026-05-05 18:35 | 50.02882 | 3.46457 | 30308 ft | 437 kts | 200° |
| 2026-05-05 18:35 | 50.00081 | 3.44590 | 30626 ft | 438 kts | 200° |
| 2026-05-05 18:35 | 49.97281 | 3.42725 | 31008 ft | 438 kts | 200° |
| 2026-05-05 18:35 | 49.94488 | 3.40867 | 31472 ft | 435 kts | 200° |
| 2026-05-05 18:36 | 49.91716 | 3.39026 | 31950 ft | 432 kts | 200° |
| 2026-05-05 18:36 | 49.88948 | 3.37191 | 32262 ft | 433 kts | 200° |
| 2026-05-05 18:36 | 49.86171 | 3.35352 | 32579 ft | 434 kts | 200° |
| 2026-05-05 18:36 | 49.83401 | 3.33520 | 33009 ft | 432 kts | 200° |
| 2026-05-05 18:37 | 49.80646 | 3.31699 | 33490 ft | 429 kts | 200° |
| 2026-05-05 18:37 | 49.77914 | 3.29892 | 33896 ft | 427 kts | 200° |